sensor_id;sensor_type;location;lat;lon;timestamp;P1;durP1;ratioP1;P2;durP2;ratioP2
56073;SDS011;41950;55.840;37.442;2024-02-26T00:01:42;4.80;;;2.67;;
56073;SDS011;41950;55.840;37.442;2024-02-26T00:04:11;6.35;;;2.53;;
56073;SDS011;41950;55.840;37.442;2024-02-26T00:06:38;4.78;;;2.65;;
56073;SDS011;41950;55.840;37.442;2024-02-26T00:09:06;3.65;;;1.90;;
56073;SDS011;41950;55.840;37.442;2024-02-26T00:11:33;4.30;;;2.13;;
56073;SDS011;41950;55.840;37.442;2024-02-26T00:14:00;5.15;;;2.72;;
56073;SDS011;41950;55.840;37.442;2024-02-26T00:16:26;5.22;;;2.45;;
56073;SDS011;41950;55.840;37.442;2024-02-26T00:18:51;6.25;;;3.08;;
56073;SDS011;41950;55.840;37.442;2024-02-26T00:21:17;5.00;;;2.63;;
56073;SDS011;41950;55.840;37.442;2024-02-26T00:23:43;4.70;;;2.40;;
56073;SDS011;41950;55.840;37.442;2024-02-26T00:26:08;4.32;;;2.50;;
56073;SDS011;41950;55.840;37.442;2024-02-26T00:28:36;4.40;;;2.05;;
56073;SDS011;41950;55.840;37.442;2024-02-26T00:31:02;4.70;;;2.35;;
56073;SDS011;41950;55.840;37.442;2024-02-26T00:33:30;5.47;;;2.83;;
56073;SDS011;41950;55.840;37.442;2024-02-26T00:35:56;6.15;;;3.00;;
56073;SDS011;41950;55.840;37.442;2024-02-26T00:38:24;4.93;;;2.10;;
56073;SDS011;41950;55.840;37.442;2024-02-26T00:40:52;4.25;;;2.47;;
56073;SDS011;41950;55.840;37.442;2024-02-26T00:43:18;4.72;;;2.78;;
56073;SDS011;41950;55.840;37.442;2024-02-26T00:45:43;5.25;;;2.50;;
56073;SDS011;41950;55.840;37.442;2024-02-26T00:48:11;4.70;;;2.28;;
56073;SDS011;41950;55.840;37.442;2024-02-26T00:50:39;5.38;;;2.53;;
56073;SDS011;41950;55.840;37.442;2024-02-26T00:53:05;4.78;;;2.45;;
56073;SDS011;41950;55.840;37.442;2024-02-26T00:55:30;4.22;;;2.10;;
56073;SDS011;41950;55.840;37.442;2024-02-26T00:57:56;5.03;;;2.40;;
56073;SDS011;41950;55.840;37.442;2024-02-26T01:00:22;6.90;;;2.78;;
56073;SDS011;41950;55.840;37.442;2024-02-26T01:02:48;3.85;;;1.80;;
56073;SDS011;41950;55.840;37.442;2024-02-26T01:05:14;4.70;;;2.03;;
56073;SDS011;41950;55.840;37.442;2024-02-26T01:07:44;4.55;;;2.30;;
56073;SDS011;41950;55.840;37.442;2024-02-26T01:10:10;4.93;;;2.03;;
56073;SDS011;41950;55.840;37.442;2024-02-26T01:12:36;4.68;;;2.50;;
56073;SDS011;41950;55.840;37.442;2024-02-26T01:15:02;5.90;;;2.40;;
56073;SDS011;41950;55.840;37.442;2024-02-26T01:17:31;5.15;;;3.10;;
56073;SDS011;41950;55.840;37.442;2024-02-26T01:19:57;4.22;;;2.50;;
56073;SDS011;41950;55.840;37.442;2024-02-26T01:22:23;3.88;;;2.28;;
56073;SDS011;41950;55.840;37.442;2024-02-26T01:24:48;4.63;;;2.30;;
56073;SDS011;41950;55.840;37.442;2024-02-26T01:27:14;3.50;;;1.77;;
56073;SDS011;41950;55.840;37.442;2024-02-26T01:29:41;4.90;;;2.35;;
56073;SDS011;41950;55.840;37.442;2024-02-26T01:32:07;4.35;;;2.60;;
56073;SDS011;41950;55.840;37.442;2024-02-26T01:34:33;4.70;;;2.75;;
56073;SDS011;41950;55.840;37.442;2024-02-26T01:36:59;4.25;;;2.15;;
56073;SDS011;41950;55.840;37.442;2024-02-26T01:39:26;4.47;;;2.20;;
56073;SDS011;41950;55.840;37.442;2024-02-26T01:41:52;4.60;;;2.20;;
56073;SDS011;41950;55.840;37.442;2024-02-26T01:44:18;4.68;;;2.30;;
56073;SDS011;41950;55.840;37.442;2024-02-26T01:46:44;4.85;;;2.15;;
56073;SDS011;41950;55.840;37.442;2024-02-26T01:49:11;6.88;;;2.72;;
56073;SDS011;41950;55.840;37.442;2024-02-26T01:51:38;4.07;;;1.88;;
56073;SDS011;41950;55.840;37.442;2024-02-26T01:54:05;4.30;;;2.47;;
56073;SDS011;41950;55.840;37.442;2024-02-26T01:56:33;5.57;;;2.17;;
56073;SDS011;41950;55.840;37.442;2024-02-26T01:59:00;4.85;;;2.00;;
56073;SDS011;41950;55.840;37.442;2024-02-26T02:01:27;2.90;;;1.42;;
56073;SDS011;41950;55.840;37.442;2024-02-26T02:03:59;3.85;;;2.00;;
56073;SDS011;41950;55.840;37.442;2024-02-26T02:06:25;5.07;;;2.40;;
56073;SDS011;41950;55.840;37.442;2024-02-26T02:08:55;4.63;;;2.05;;
56073;SDS011;41950;55.840;37.442;2024-02-26T02:11:21;4.28;;;1.95;;
56073;SDS011;41950;55.840;37.442;2024-02-26T02:13:47;5.55;;;2.70;;
56073;SDS011;41950;55.840;37.442;2024-02-26T02:16:13;3.60;;;2.20;;
56073;SDS011;41950;55.840;37.442;2024-02-26T02:18:39;4.65;;;2.00;;
56073;SDS011;41950;55.840;37.442;2024-02-26T02:21:05;6.18;;;2.00;;
56073;SDS011;41950;55.840;37.442;2024-02-26T02:23:30;4.47;;;2.13;;
56073;SDS011;41950;55.840;37.442;2024-02-26T02:25:56;4.05;;;1.88;;
56073;SDS011;41950;55.840;37.442;2024-02-26T02:28:23;3.85;;;1.75;;
56073;SDS011;41950;55.840;37.442;2024-02-26T02:30:51;4.85;;;1.90;;
56073;SDS011;41950;55.840;37.442;2024-02-26T02:33:17;5.22;;;1.83;;
56073;SDS011;41950;55.840;37.442;2024-02-26T02:35:43;3.38;;;1.83;;
56073;SDS011;41950;55.840;37.442;2024-02-26T02:38:09;4.57;;;1.98;;
56073;SDS011;41950;55.840;37.442;2024-02-26T02:40:34;3.78;;;1.63;;
56073;SDS011;41950;55.840;37.442;2024-02-26T02:43:00;4.78;;;1.98;;
56073;SDS011;41950;55.840;37.442;2024-02-26T02:45:28;3.50;;;1.95;;
56073;SDS011;41950;55.840;37.442;2024-02-26T02:47:54;4.43;;;1.70;;
56073;SDS011;41950;55.840;37.442;2024-02-26T02:50:20;3.95;;;1.98;;
56073;SDS011;41950;55.840;37.442;2024-02-26T02:52:46;4.07;;;1.73;;
56073;SDS011;41950;55.840;37.442;2024-02-26T02:55:12;4.40;;;1.83;;
56073;SDS011;41950;55.840;37.442;2024-02-26T02:57:38;5.07;;;2.00;;
56073;SDS011;41950;55.840;37.442;2024-02-26T03:00:10;4.63;;;1.73;;
56073;SDS011;41950;55.840;37.442;2024-02-26T03:02:36;4.05;;;1.98;;
56073;SDS011;41950;55.840;37.442;2024-02-26T03:05:05;5.32;;;1.75;;
56073;SDS011;41950;55.840;37.442;2024-02-26T03:07:31;6.90;;;1.98;;
56073;SDS011;41950;55.840;37.442;2024-02-26T03:09:57;3.45;;;1.52;;
56073;SDS011;41950;55.840;37.442;2024-02-26T03:12:23;3.75;;;1.98;;
56073;SDS011;41950;55.840;37.442;2024-02-26T03:14:48;3.38;;;1.42;;
56073;SDS011;41950;55.840;37.442;2024-02-26T03:17:14;4.70;;;1.80;;
56073;SDS011;41950;55.840;37.442;2024-02-26T03:19:40;4.07;;;2.00;;
56073;SDS011;41950;55.840;37.442;2024-02-26T03:22:06;3.50;;;1.70;;
56073;SDS011;41950;55.840;37.442;2024-02-26T03:24:32;3.17;;;1.38;;
56073;SDS011;41950;55.840;37.442;2024-02-26T03:26:57;3.30;;;1.52;;
56073;SDS011;41950;55.840;37.442;2024-02-26T03:29:23;3.78;;;1.80;;
56073;SDS011;41950;55.840;37.442;2024-02-26T03:31:49;3.50;;;1.70;;
56073;SDS011;41950;55.840;37.442;2024-02-26T03:34:14;4.40;;;1.60;;
56073;SDS011;41950;55.840;37.442;2024-02-26T03:36:40;4.22;;;1.50;;
56073;SDS011;41950;55.840;37.442;2024-02-26T03:39:07;4.68;;;2.00;;
56073;SDS011;41950;55.840;37.442;2024-02-26T03:41:36;5.40;;;1.98;;
56073;SDS011;41950;55.840;37.442;2024-02-26T03:44:02;3.75;;;2.03;;
56073;SDS011;41950;55.840;37.442;2024-02-26T03:46:28;4.72;;;1.70;;
56073;SDS011;41950;55.840;37.442;2024-02-26T03:48:53;4.50;;;2.15;;
56073;SDS011;41950;55.840;37.442;2024-02-26T03:51:19;3.65;;;1.80;;
56073;SDS011;41950;55.840;37.442;2024-02-26T03:53:45;3.45;;;1.48;;
56073;SDS011;41950;55.840;37.442;2024-02-26T03:56:11;4.22;;;1.90;;
56073;SDS011;41950;55.840;37.442;2024-02-26T03:58:38;4.03;;;2.00;;
56073;SDS011;41950;55.840;37.442;2024-02-26T04:01:04;5.90;;;2.10;;
56073;SDS011;41950;55.840;37.442;2024-02-26T04:03:32;5.75;;;2.13;;
56073;SDS011;41950;55.840;37.442;2024-02-26T04:05:58;5.40;;;2.00;;
56073;SDS011;41950;55.840;37.442;2024-02-26T04:08:23;3.90;;;1.90;;
56073;SDS011;41950;55.840;37.442;2024-02-26T04:10:49;3.80;;;1.75;;
56073;SDS011;41950;55.840;37.442;2024-02-26T04:13:14;5.38;;;1.90;;
56073;SDS011;41950;55.840;37.442;2024-02-26T04:15:40;4.82;;;2.17;;
56073;SDS011;41950;55.840;37.442;2024-02-26T04:18:06;5.13;;;2.05;;
56073;SDS011;41950;55.840;37.442;2024-02-26T04:20:32;3.85;;;1.98;;
56073;SDS011;41950;55.840;37.442;2024-02-26T04:22:57;4.03;;;1.70;;
56073;SDS011;41950;55.840;37.442;2024-02-26T04:25:23;3.42;;;1.80;;
56073;SDS011;41950;55.840;37.442;2024-02-26T04:27:49;4.93;;;2.10;;
56073;SDS011;41950;55.840;37.442;2024-02-26T04:30:14;4.93;;;1.75;;
56073;SDS011;41950;55.840;37.442;2024-02-26T04:32:40;5.15;;;2.08;;
56073;SDS011;41950;55.840;37.442;2024-02-26T04:35:06;4.72;;;2.08;;
56073;SDS011;41950;55.840;37.442;2024-02-26T04:37:31;4.53;;;2.05;;
56073;SDS011;41950;55.840;37.442;2024-02-26T04:39:58;3.92;;;2.13;;
56073;SDS011;41950;55.840;37.442;2024-02-26T04:42:24;4.97;;;1.70;;
56073;SDS011;41950;55.840;37.442;2024-02-26T04:44:50;4.63;;;2.08;;
56073;SDS011;41950;55.840;37.442;2024-02-26T04:47:15;4.10;;;2.30;;
56073;SDS011;41950;55.840;37.442;2024-02-26T04:49:41;5.68;;;2.33;;
56073;SDS011;41950;55.840;37.442;2024-02-26T04:52:07;6.50;;;2.47;;
56073;SDS011;41950;55.840;37.442;2024-02-26T04:54:33;4.22;;;2.05;;
56073;SDS011;41950;55.840;37.442;2024-02-26T04:56:58;4.47;;;2.17;;
56073;SDS011;41950;55.840;37.442;2024-02-26T04:59:24;4.15;;;1.40;;
56073;SDS011;41950;55.840;37.442;2024-02-26T05:01:50;4.47;;;2.05;;
56073;SDS011;41950;55.840;37.442;2024-02-26T05:04:17;5.20;;;2.60;;
56073;SDS011;41950;55.840;37.442;2024-02-26T05:06:43;6.93;;;2.60;;
56073;SDS011;41950;55.840;37.442;2024-02-26T05:09:09;5.05;;;2.10;;
56073;SDS011;41950;55.840;37.442;2024-02-26T05:11:35;4.85;;;2.30;;
56073;SDS011;41950;55.840;37.442;2024-02-26T05:14:00;5.53;;;2.13;;
56073;SDS011;41950;55.840;37.442;2024-02-26T05:16:26;4.13;;;2.45;;
56073;SDS011;41950;55.840;37.442;2024-02-26T05:18:52;5.28;;;2.00;;
56073;SDS011;41950;55.840;37.442;2024-02-26T05:21:18;5.57;;;2.58;;
56073;SDS011;41950;55.840;37.442;2024-02-26T05:23:44;3.92;;;2.10;;
56073;SDS011;41950;55.840;37.442;2024-02-26T05:26:10;3.78;;;2.08;;
56073;SDS011;41950;55.840;37.442;2024-02-26T05:28:36;4.40;;;2.33;;
56073;SDS011;41950;55.840;37.442;2024-02-26T05:31:04;6.32;;;2.42;;
56073;SDS011;41950;55.840;37.442;2024-02-26T05:33:30;5.05;;;2.67;;
56073;SDS011;41950;55.840;37.442;2024-02-26T05:35:56;5.63;;;2.60;;
56073;SDS011;41950;55.840;37.442;2024-02-26T05:38:22;7.20;;;2.83;;
56073;SDS011;41950;55.840;37.442;2024-02-26T05:40:47;5.68;;;2.65;;
56073;SDS011;41950;55.840;37.442;2024-02-26T05:43:13;2.95;;;1.60;;
56073;SDS011;41950;55.840;37.442;2024-02-26T05:45:42;4.60;;;2.83;;
56073;SDS011;41950;55.840;37.442;2024-02-26T05:48:07;5.78;;;2.80;;
56073;SDS011;41950;55.840;37.442;2024-02-26T05:50:33;5.45;;;2.42;;
56073;SDS011;41950;55.840;37.442;2024-02-26T05:52:59;5.85;;;2.75;;
56073;SDS011;41950;55.840;37.442;2024-02-26T05:55:24;6.43;;;2.28;;
56073;SDS011;41950;55.840;37.442;2024-02-26T05:57:50;6.35;;;3.10;;
56073;SDS011;41950;55.840;37.442;2024-02-26T06:00:16;4.82;;;2.65;;
56073;SDS011;41950;55.840;37.442;2024-02-26T06:02:42;5.28;;;2.03;;
56073;SDS011;41950;55.840;37.442;2024-02-26T06:05:08;6.25;;;2.60;;
56073;SDS011;41950;55.840;37.442;2024-02-26T06:07:34;5.07;;;3.20;;
56073;SDS011;41950;55.840;37.442;2024-02-26T06:10:00;5.80;;;2.97;;
56073;SDS011;41950;55.840;37.442;2024-02-26T06:12:29;5.60;;;3.08;;
56073;SDS011;41950;55.840;37.442;2024-02-26T06:14:56;5.03;;;2.63;;
56073;SDS011;41950;55.840;37.442;2024-02-26T06:17:22;6.82;;;3.15;;
56073;SDS011;41950;55.840;37.442;2024-02-26T06:19:48;7.25;;;3.38;;
56073;SDS011;41950;55.840;37.442;2024-02-26T06:22:13;4.65;;;2.47;;
56073;SDS011;41950;55.840;37.442;2024-02-26T06:24:39;6.70;;;3.30;;
56073;SDS011;41950;55.840;37.442;2024-02-26T06:27:05;7.28;;;3.60;;
56073;SDS011;41950;55.840;37.442;2024-02-26T06:29:30;5.20;;;2.78;;
56073;SDS011;41950;55.840;37.442;2024-02-26T06:31:56;6.38;;;3.40;;
56073;SDS011;41950;55.840;37.442;2024-02-26T06:34:22;6.20;;;3.20;;
56073;SDS011;41950;55.840;37.442;2024-02-26T06:36:48;6.40;;;3.10;;
56073;SDS011;41950;55.840;37.442;2024-02-26T06:39:13;7.07;;;3.70;;
56073;SDS011;41950;55.840;37.442;2024-02-26T06:41:41;6.47;;;3.35;;
56073;SDS011;41950;55.840;37.442;2024-02-26T06:44:07;7.35;;;3.40;;
56073;SDS011;41950;55.840;37.442;2024-02-26T06:46:32;6.70;;;3.78;;
56073;SDS011;41950;55.840;37.442;2024-02-26T06:48:58;5.95;;;2.40;;
56073;SDS011;41950;55.840;37.442;2024-02-26T06:51:24;8.45;;;3.45;;
56073;SDS011;41950;55.840;37.442;2024-02-26T06:53:50;6.43;;;3.38;;
56073;SDS011;41950;55.840;37.442;2024-02-26T06:56:15;9.90;;;4.13;;
56073;SDS011;41950;55.840;37.442;2024-02-26T06:58:41;6.30;;;3.55;;
56073;SDS011;41950;55.840;37.442;2024-02-26T07:01:07;6.75;;;3.50;;
56073;SDS011;41950;55.840;37.442;2024-02-26T07:03:33;6.97;;;3.40;;
56073;SDS011;41950;55.840;37.442;2024-02-26T07:05:59;6.22;;;3.83;;
56073;SDS011;41950;55.840;37.442;2024-02-26T07:08:25;6.22;;;3.65;;
56073;SDS011;41950;55.840;37.442;2024-02-26T07:10:51;7.47;;;3.20;;
56073;SDS011;41950;55.840;37.442;2024-02-26T07:13:17;6.32;;;3.50;;
56073;SDS011;41950;55.840;37.442;2024-02-26T07:15:42;7.38;;;3.75;;
56073;SDS011;41950;55.840;37.442;2024-02-26T07:18:08;7.63;;;3.83;;
56073;SDS011;41950;55.840;37.442;2024-02-26T07:20:35;7.28;;;3.60;;
56073;SDS011;41950;55.840;37.442;2024-02-26T07:23:01;7.25;;;3.25;;
56073;SDS011;41950;55.840;37.442;2024-02-26T07:25:26;6.95;;;3.40;;
56073;SDS011;41950;55.840;37.442;2024-02-26T07:27:52;4.78;;;2.83;;
56073;SDS011;41950;55.840;37.442;2024-02-26T07:30:18;4.22;;;2.45;;
56073;SDS011;41950;55.840;37.442;2024-02-26T07:32:43;5.13;;;3.08;;
56073;SDS011;41950;55.840;37.442;2024-02-26T07:35:09;7.65;;;3.30;;
56073;SDS011;41950;55.840;37.442;2024-02-26T07:37:35;7.05;;;3.95;;
56073;SDS011;41950;55.840;37.442;2024-02-26T07:40:01;6.05;;;3.03;;
56073;SDS011;41950;55.840;37.442;2024-02-26T07:42:27;7.20;;;3.28;;
56073;SDS011;41950;55.840;37.442;2024-02-26T07:44:53;6.57;;;3.53;;
56073;SDS011;41950;55.840;37.442;2024-02-26T07:47:19;9.77;;;4.13;;
56073;SDS011;41950;55.840;37.442;2024-02-26T07:49:45;5.55;;;3.05;;
56073;SDS011;41950;55.840;37.442;2024-02-26T07:52:10;8.23;;;4.00;;
56073;SDS011;41950;55.840;37.442;2024-02-26T07:54:36;6.68;;;3.38;;
56073;SDS011;41950;55.840;37.442;2024-02-26T07:57:02;5.43;;;3.42;;
56073;SDS011;41950;55.840;37.442;2024-02-26T07:59:30;6.20;;;4.13;;
56073;SDS011;41950;55.840;37.442;2024-02-26T08:01:57;8.00;;;4.55;;
56073;SDS011;41950;55.840;37.442;2024-02-26T08:04:22;7.82;;;3.30;;
56073;SDS011;41950;55.840;37.442;2024-02-26T08:06:48;7.85;;;4.25;;
56073;SDS011;41950;55.840;37.442;2024-02-26T08:09:14;5.50;;;3.03;;
56073;SDS011;41950;55.840;37.442;2024-02-26T08:11:40;7.72;;;4.22;;
56073;SDS011;41950;55.840;37.442;2024-02-26T08:14:05;7.18;;;4.50;;
56073;SDS011;41950;55.840;37.442;2024-02-26T08:16:31;9.32;;;4.20;;
56073;SDS011;41950;55.840;37.442;2024-02-26T08:18:57;8.52;;;4.47;;
56073;SDS011;41950;55.840;37.442;2024-02-26T08:21:23;9.93;;;4.57;;
56073;SDS011;41950;55.840;37.442;2024-02-26T08:23:48;9.30;;;4.50;;
56073;SDS011;41950;55.840;37.442;2024-02-26T08:26:14;6.93;;;4.07;;
56073;SDS011;41950;55.840;37.442;2024-02-26T08:28:39;6.25;;;3.67;;
56073;SDS011;41950;55.840;37.442;2024-02-26T08:31:05;11.60;;;6.10;;
56073;SDS011;41950;55.840;37.442;2024-02-26T08:33:32;6.68;;;3.92;;
56073;SDS011;41950;55.840;37.442;2024-02-26T08:35:59;7.50;;;4.32;;
56073;SDS011;41950;55.840;37.442;2024-02-26T08:38:24;7.90;;;3.67;;
56073;SDS011;41950;55.840;37.442;2024-02-26T08:40:50;7.50;;;4.35;;
56073;SDS011;41950;55.840;37.442;2024-02-26T08:43:16;9.27;;;4.57;;
56073;SDS011;41950;55.840;37.442;2024-02-26T08:45:41;6.30;;;4.07;;
56073;SDS011;41950;55.840;37.442;2024-02-26T08:48:07;6.40;;;3.92;;
56073;SDS011;41950;55.840;37.442;2024-02-26T08:50:32;7.05;;;4.10;;
56073;SDS011;41950;55.840;37.442;2024-02-26T08:52:58;8.18;;;3.85;;
56073;SDS011;41950;55.840;37.442;2024-02-26T08:55:26;6.60;;;3.38;;
56073;SDS011;41950;55.840;37.442;2024-02-26T08:57:52;5.82;;;3.42;;
56073;SDS011;41950;55.840;37.442;2024-02-26T09:00:18;7.03;;;4.25;;
56073;SDS011;41950;55.840;37.442;2024-02-26T09:02:46;5.75;;;3.80;;
56073;SDS011;41950;55.840;37.442;2024-02-26T09:05:12;9.45;;;3.90;;
56073;SDS011;41950;55.840;37.442;2024-02-26T09:07:38;10.30;;;3.25;;
56073;SDS011;41950;55.840;37.442;2024-02-26T09:10:05;9.15;;;4.05;;
56073;SDS011;41950;55.840;37.442;2024-02-26T09:12:31;6.28;;;3.60;;
56073;SDS011;41950;55.840;37.442;2024-02-26T09:14:57;7.38;;;3.55;;
56073;SDS011;41950;55.840;37.442;2024-02-26T09:17:22;6.18;;;3.67;;
56073;SDS011;41950;55.840;37.442;2024-02-26T09:19:48;7.65;;;3.38;;
56073;SDS011;41950;55.840;37.442;2024-02-26T09:22:14;6.32;;;3.33;;
56073;SDS011;41950;55.840;37.442;2024-02-26T09:24:40;7.75;;;3.67;;
56073;SDS011;41950;55.840;37.442;2024-02-26T09:27:05;5.95;;;3.75;;
56073;SDS011;41950;55.840;37.442;2024-02-26T09:29:31;6.60;;;3.28;;
56073;SDS011;41950;55.840;37.442;2024-02-26T09:31:58;7.88;;;3.40;;
56073;SDS011;41950;55.840;37.442;2024-02-26T09:34:23;6.80;;;3.80;;
56073;SDS011;41950;55.840;37.442;2024-02-26T09:36:49;7.97;;;3.38;;
56073;SDS011;41950;55.840;37.442;2024-02-26T09:39:15;7.70;;;4.00;;
56073;SDS011;41950;55.840;37.442;2024-02-26T09:41:45;7.55;;;4.10;;
56073;SDS011;41950;55.840;37.442;2024-02-26T09:44:11;8.02;;;3.78;;
56073;SDS011;41950;55.840;37.442;2024-02-26T09:46:40;7.07;;;3.53;;
56073;SDS011;41950;55.840;37.442;2024-02-26T09:49:06;5.45;;;3.00;;
56073;SDS011;41950;55.840;37.442;2024-02-26T09:51:34;7.63;;;3.50;;
56073;SDS011;41950;55.840;37.442;2024-02-26T09:53:59;5.97;;;3.38;;
56073;SDS011;41950;55.840;37.442;2024-02-26T09:56:28;7.03;;;3.67;;
56073;SDS011;41950;55.840;37.442;2024-02-26T09:58:55;5.90;;;3.30;;
56073;SDS011;41950;55.840;37.442;2024-02-26T10:01:23;4.85;;;2.33;;
56073;SDS011;41950;55.840;37.442;2024-02-26T10:03:56;8.13;;;4.07;;
56073;SDS011;41950;55.840;37.442;2024-02-26T10:06:24;5.82;;;3.67;;
56073;SDS011;41950;55.840;37.442;2024-02-26T10:08:51;7.50;;;4.30;;
56073;SDS011;41950;55.840;37.442;2024-02-26T10:11:18;8.35;;;4.40;;
56073;SDS011;41950;55.840;37.442;2024-02-26T10:13:44;5.85;;;3.80;;
56073;SDS011;41950;55.840;37.442;2024-02-26T10:16:10;9.13;;;3.97;;
56073;SDS011;41950;55.840;37.442;2024-02-26T10:18:48;8.13;;;3.97;;
56073;SDS011;41950;55.840;37.442;2024-02-26T10:21:20;9.05;;;4.78;;
56073;SDS011;41950;55.840;37.442;2024-02-26T10:23:47;9.50;;;4.28;;
56073;SDS011;41950;55.840;37.442;2024-02-26T10:26:14;8.25;;;4.90;;
56073;SDS011;41950;55.840;37.442;2024-02-26T10:28:41;7.38;;;3.83;;
56073;SDS011;41950;55.840;37.442;2024-02-26T10:31:08;15.23;;;6.10;;
56073;SDS011;41950;55.840;37.442;2024-02-26T10:33:38;7.13;;;4.18;;
56073;SDS011;41950;55.840;37.442;2024-02-26T10:36:04;8.00;;;4.47;;
56073;SDS011;41950;55.840;37.442;2024-02-26T10:38:34;8.40;;;3.65;;
56073;SDS011;41950;55.840;37.442;2024-02-26T10:41:01;9.25;;;4.20;;
56073;SDS011;41950;55.840;37.442;2024-02-26T10:43:28;6.53;;;3.58;;
56073;SDS011;41950;55.840;37.442;2024-02-26T10:45:57;9.25;;;3.88;;
56073;SDS011;41950;55.840;37.442;2024-02-26T10:48:23;7.88;;;4.00;;
56073;SDS011;41950;55.840;37.442;2024-02-26T10:50:49;6.68;;;3.90;;
56073;SDS011;41950;55.840;37.442;2024-02-26T10:53:22;6.78;;;3.53;;
56073;SDS011;41950;55.840;37.442;2024-02-26T10:55:52;7.85;;;4.50;;
56073;SDS011;41950;55.840;37.442;2024-02-26T10:58:28;7.97;;;4.32;;
56073;SDS011;41950;55.840;37.442;2024-02-26T11:00:56;6.28;;;4.10;;
56073;SDS011;41950;55.840;37.442;2024-02-26T11:03:23;8.50;;;4.43;;
56073;SDS011;41950;55.840;37.442;2024-02-26T11:05:50;8.00;;;3.63;;
56073;SDS011;41950;55.840;37.442;2024-02-26T11:08:19;6.72;;;3.88;;
56073;SDS011;41950;55.840;37.442;2024-02-26T11:10:50;6.43;;;4.20;;
56073;SDS011;41950;55.840;37.442;2024-02-26T11:13:18;6.53;;;3.60;;
56073;SDS011;41950;55.840;37.442;2024-02-26T11:15:48;7.07;;;3.70;;
56073;SDS011;41950;55.840;37.442;2024-02-26T11:18:15;7.25;;;4.50;;
56073;SDS011;41950;55.840;37.442;2024-02-26T11:20:41;8.93;;;4.13;;
56073;SDS011;41950;55.840;37.442;2024-02-26T11:23:08;7.40;;;3.95;;
56073;SDS011;41950;55.840;37.442;2024-02-26T11:25:37;7.80;;;3.53;;
56073;SDS011;41950;55.840;37.442;2024-02-26T11:28:05;5.53;;;3.80;;
56073;SDS011;41950;55.840;37.442;2024-02-26T11:30:34;8.48;;;3.75;;
56073;SDS011;41950;55.840;37.442;2024-02-26T11:33:06;7.28;;;3.35;;
56073;SDS011;41950;55.840;37.442;2024-02-26T11:35:34;8.38;;;3.95;;
56073;SDS011;41950;55.840;37.442;2024-02-26T11:38:01;6.72;;;3.53;;
56073;SDS011;41950;55.840;37.442;2024-02-26T11:40:29;7.15;;;3.63;;
56073;SDS011;41950;55.840;37.442;2024-02-26T11:42:56;6.25;;;3.10;;
56073;SDS011;41950;55.840;37.442;2024-02-26T11:48:13;10.50;;;4.25;;
56073;SDS011;41950;55.840;37.442;2024-02-26T11:50:46;7.57;;;4.05;;
56073;SDS011;41950;55.840;37.442;2024-02-26T11:58:40;8.00;;;3.40;;
56073;SDS011;41950;55.840;37.442;2024-02-26T12:01:35;6.80;;;3.50;;
56073;SDS011;41950;55.840;37.442;2024-02-26T12:04:01;10.63;;;3.85;;
56073;SDS011;41950;55.840;37.442;2024-02-26T12:06:27;7.65;;;3.75;;
56073;SDS011;41950;55.840;37.442;2024-02-26T12:08:54;10.52;;;3.85;;
56073;SDS011;41950;55.840;37.442;2024-02-26T12:11:21;10.20;;;3.70;;
56073;SDS011;41950;55.840;37.442;2024-02-26T12:13:47;6.68;;;3.08;;
56073;SDS011;41950;55.840;37.442;2024-02-26T12:19:13;10.27;;;3.88;;
56073;SDS011;41950;55.840;37.442;2024-02-26T12:21:40;9.57;;;3.70;;
56073;SDS011;41950;55.840;37.442;2024-02-26T12:24:12;7.63;;;3.38;;
56073;SDS011;41950;55.840;37.442;2024-02-26T12:26:39;8.77;;;4.28;;
56073;SDS011;41950;55.840;37.442;2024-02-26T12:29:06;7.13;;;3.90;;
56073;SDS011;41950;55.840;37.442;2024-02-26T12:31:32;6.85;;;4.03;;
56073;SDS011;41950;55.840;37.442;2024-02-26T12:33:59;9.50;;;3.97;;
56073;SDS011;41950;55.840;37.442;2024-02-26T12:36:26;8.60;;;4.15;;
56073;SDS011;41950;55.840;37.442;2024-02-26T12:38:52;7.22;;;3.80;;
56073;SDS011;41950;55.840;37.442;2024-02-26T12:41:17;7.78;;;3.67;;
56073;SDS011;41950;55.840;37.442;2024-02-26T12:43:43;5.80;;;3.53;;
56073;SDS011;41950;55.840;37.442;2024-02-26T12:46:09;7.78;;;3.30;;
56073;SDS011;41950;55.840;37.442;2024-02-26T12:48:36;8.30;;;3.63;;
56073;SDS011;41950;55.840;37.442;2024-02-26T12:51:01;9.20;;;3.95;;
56073;SDS011;41950;55.840;37.442;2024-02-26T12:53:27;7.80;;;3.38;;
56073;SDS011;41950;55.840;37.442;2024-02-26T12:55:54;7.05;;;3.70;;
56073;SDS011;41950;55.840;37.442;2024-02-26T12:58:21;8.35;;;4.30;;
56073;SDS011;41950;55.840;37.442;2024-02-26T13:00:53;7.07;;;3.58;;
56073;SDS011;41950;55.840;37.442;2024-02-26T13:03:20;7.95;;;4.00;;
56073;SDS011;41950;55.840;37.442;2024-02-26T13:05:47;7.43;;;4.07;;
56073;SDS011;41950;55.840;37.442;2024-02-26T13:08:17;10.95;;;4.28;;
56073;SDS011;41950;55.840;37.442;2024-02-26T13:10:45;7.80;;;3.83;;
56073;SDS011;41950;55.840;37.442;2024-02-26T13:13:11;7.93;;;3.97;;
56073;SDS011;41950;55.840;37.442;2024-02-26T13:15:40;8.45;;;4.03;;
56073;SDS011;41950;55.840;37.442;2024-02-26T13:18:09;7.95;;;3.55;;
56073;SDS011;41950;55.840;37.442;2024-02-26T13:20:36;8.55;;;3.75;;
56073;SDS011;41950;55.840;37.442;2024-02-26T13:23:06;8.10;;;3.47;;
56073;SDS011;41950;55.840;37.442;2024-02-26T13:25:33;8.90;;;3.70;;
56073;SDS011;41950;55.840;37.442;2024-02-26T13:28:12;8.80;;;3.78;;
56073;SDS011;41950;55.840;37.442;2024-02-26T13:30:55;6.78;;;3.40;;
56073;SDS011;41950;55.840;37.442;2024-02-26T13:33:26;6.85;;;3.63;;
56073;SDS011;41950;55.840;37.442;2024-02-26T13:35:54;8.85;;;3.40;;
56073;SDS011;41950;55.840;37.442;2024-02-26T13:38:21;6.93;;;3.60;;
56073;SDS011;41950;55.840;37.442;2024-02-26T13:40:47;5.50;;;3.20;;
56073;SDS011;41950;55.840;37.442;2024-02-26T13:43:13;7.95;;;3.38;;
56073;SDS011;41950;55.840;37.442;2024-02-26T13:45:39;5.15;;;2.67;;
56073;SDS011;41950;55.840;37.442;2024-02-26T13:48:08;7.75;;;3.28;;
56073;SDS011;41950;55.840;37.442;2024-02-26T13:50:36;7.25;;;3.58;;
56073;SDS011;41950;55.840;37.442;2024-02-26T13:53:03;8.30;;;4.38;;
56073;SDS011;41950;55.840;37.442;2024-02-26T13:55:30;9.63;;;3.90;;
56073;SDS011;41950;55.840;37.442;2024-02-26T13:58:00;6.10;;;3.00;;
56073;SDS011;41950;55.840;37.442;2024-02-26T14:00:29;9.60;;;3.65;;
56073;SDS011;41950;55.840;37.442;2024-02-26T14:03:00;6.68;;;3.25;;
56073;SDS011;41950;55.840;37.442;2024-02-26T14:05:26;6.88;;;3.47;;
56073;SDS011;41950;55.840;37.442;2024-02-26T14:07:52;5.78;;;2.88;;
56073;SDS011;41950;55.840;37.442;2024-02-26T14:10:19;4.78;;;2.70;;
56073;SDS011;41950;55.840;37.442;2024-02-26T14:12:45;8.70;;;3.10;;
56073;SDS011;41950;55.840;37.442;2024-02-26T14:15:11;6.75;;;3.17;;
56073;SDS011;41950;55.840;37.442;2024-02-26T14:17:36;5.90;;;2.65;;
56073;SDS011;41950;55.840;37.442;2024-02-26T14:20:02;7.35;;;2.70;;
56073;SDS011;41950;55.840;37.442;2024-02-26T14:22:30;8.15;;;2.95;;
56073;SDS011;41950;55.840;37.442;2024-02-26T14:24:56;5.25;;;2.58;;
56073;SDS011;41950;55.840;37.442;2024-02-26T14:27:22;5.22;;;2.75;;
56073;SDS011;41950;55.840;37.442;2024-02-26T14:29:49;4.85;;;2.65;;
56073;SDS011;41950;55.840;37.442;2024-02-26T14:32:15;5.32;;;2.38;;
56073;SDS011;41950;55.840;37.442;2024-02-26T14:34:41;5.25;;;2.60;;
56073;SDS011;41950;55.840;37.442;2024-02-26T14:37:07;7.25;;;3.53;;
56073;SDS011;41950;55.840;37.442;2024-02-26T14:39:32;5.88;;;2.67;;
56073;SDS011;41950;55.840;37.442;2024-02-26T14:41:59;5.50;;;2.78;;